createdAt,value
2022-12-28T00:13:52.198Z,39
2022-12-28T00:16:20.480Z,35
2022-12-28T00:18:48.718Z,36
2022-12-28T00:22:39.371Z,36
2022-12-28T00:26:38.108Z,40
2022-12-28T00:29:06.382Z,39
2022-12-28T00:31:34.713Z,38
2022-12-28T00:34:11.079Z,45
2022-12-28T00:37:07.998Z,35
2022-12-28T00:40:30.021Z,38
2022-12-28T00:44:20.528Z,39
2022-12-28T00:49:25.260Z,37
2022-12-28T00:51:53.519Z,40
2022-12-28T00:54:21.792Z,44
2022-12-28T00:56:50.113Z,44
2022-12-28T01:00:32.522Z,41
2022-12-28T01:38:58.812Z,50
2022-12-28T02:34:34.768Z,30
2022-12-28T02:41:01.794Z,28
2022-12-28T02:43:38.268Z,32
2022-12-28T02:47:28.943Z,29
2022-12-28T02:51:27.659Z,29
2022-12-28T02:54:04.103Z,32
2022-12-28T02:56:32.400Z,27
2022-12-28T02:59:00.731Z,31
2022-12-28T03:01:28.997Z,34
2022-12-28T03:04:05.362Z,34
2022-12-28T03:06:41.824Z,32
2022-12-28T03:10:24.314Z,35
2022-12-28T03:13:00.772Z,37
2022-12-28T03:16:43.062Z,30
2022-12-28T03:20:25.549Z,32
2022-12-28T03:23:02.012Z,36
2022-12-28T03:25:30.238Z,36
2022-12-28T03:30:26.744Z,37
2022-12-28T03:32:55.034Z,38
2022-12-28T03:35:23.281Z,33
2022-12-28T03:40:19.886Z,36
2022-12-28T03:50:29.318Z,34
2022-12-28T04:26:35.598Z,32
2022-12-28T04:30:26.187Z,31
2022-12-28T04:32:54.406Z,28
2022-12-28T04:35:22.642Z,26
2022-12-28T04:37:50.903Z,26
2022-12-28T04:41:25.114Z,28
2022-12-28T04:43:53.452Z,24
2022-12-28T04:46:21.653Z,25
2022-12-28T04:48:49.950Z,26
2022-12-28T04:52:32.271Z,23
2022-12-28T04:55:00.533Z,25
2022-12-28T04:57:28.842Z,23
2022-12-28T04:59:57.119Z,29
2022-12-28T05:02:25.483Z,25
2022-12-28T05:04:53.644Z,23
2022-12-28T05:08:36.022Z,28
2022-12-28T05:11:04.289Z,25
2022-12-28T05:13:32.534Z,27
2022-12-28T05:16:00.800Z,24
2022-12-28T05:18:29.116Z,30
2022-12-28T05:20:57.341Z,24
2022-12-28T05:23:25.600Z,28
2022-12-28T05:28:22.272Z,27
2022-12-28T05:48:41.126Z,25
2022-12-28T05:53:54.026Z,22
2022-12-28T06:13:40.190Z,19
2022-12-28T06:18:53.058Z,18
2022-12-28T06:21:21.252Z,22
2022-12-28T06:23:49.554Z,21
2022-12-28T06:27:32.050Z,21
2022-12-28T07:36:59.803Z,14
2022-12-28T07:39:36.282Z,15
2022-12-28T07:44:27.961Z,14
2022-12-28T07:49:29.333Z,13
2022-12-28T07:54:25.827Z,13
2022-12-28T07:59:25.999Z,13
2022-12-28T08:39:19.316Z,13
2022-12-28T08:55:39.449Z,11
2022-12-28T09:03:20.568Z,11
2022-12-28T09:31:37.574Z,7
2022-12-28T09:37:48.062Z,11
2022-12-28T09:42:44.644Z,10
2022-12-28T09:47:41.123Z,11
2022-12-28T10:06:29.572Z,10
2022-12-28T10:12:56.567Z,13
2022-12-28T10:18:01.352Z,10
2022-12-28T10:24:32.846Z,10
2022-12-28T10:29:24.932Z,13
2022-12-28T12:10:43.510Z,14
2022-12-28T12:18:24.607Z,12
2022-12-28T12:28:25.913Z,10
2022-12-28T12:36:07.043Z,14
2022-12-28T13:18:45.143Z,12
2022-12-28T13:24:42.925Z,10
2022-12-28T13:48:19.621Z,12
2022-12-28T13:51:04.182Z,9
2022-12-28T13:54:46.580Z,15
2022-12-28T13:58:28.959Z,9
2022-12-28T14:00:57.250Z,10
2022-12-28T14:03:25.568Z,10
2022-12-28T14:05:53.854Z,12
2022-12-28T14:08:22.059Z,9
2022-12-28T14:10:50.379Z,13
2022-12-28T15:02:35.909Z,13
2022-12-28T15:05:12.186Z,12
2022-12-28T15:07:48.638Z,12
2022-12-28T15:11:31.024Z,12
2022-12-28T15:13:59.283Z,13
2022-12-28T15:17:41.724Z,12
2022-12-28T15:22:46.528Z,10
2022-12-28T15:57:46.728Z,16
2022-12-28T16:01:29.309Z,15
2022-12-28T16:03:57.419Z,15
2022-12-28T16:07:39.779Z,15
2022-12-28T16:12:36.345Z,16
2022-12-28T16:38:24.991Z,18
2022-12-28T16:41:01.378Z,22
2022-12-28T16:43:29.657Z,19
2022-12-28T16:47:12.048Z,25
2022-12-28T16:49:40.298Z,26
2022-12-28T16:53:24.845Z,23
2022-12-28T16:57:05.110Z,25
2022-12-28T17:24:24.308Z,21
2022-12-28T17:27:07.107Z,21
2022-12-28T17:29:28.971Z,20
2022-12-28T17:31:57.266Z,31
2022-12-28T17:34:25.468Z,24
2022-12-28T17:36:53.749Z,25
2022-12-28T17:39:13.807Z,19
2022-12-28T17:41:42.147Z,19
2022-12-28T17:46:38.673Z,15
2022-12-28T18:13:57.805Z,20
2022-12-28T18:16:34.335Z,24
2022-12-28T18:19:02.502Z,23
2022-12-28T18:21:30.707Z,41
2022-12-28T18:23:59.010Z,27
2022-12-28T18:26:27.288Z,24
2022-12-28T18:28:55.539Z,22
2022-12-28T18:31:23.910Z,27
2022-12-28T18:33:52.042Z,25
2022-12-28T18:36:28.555Z,27
2022-12-28T18:39:04.992Z,28
2022-12-28T18:51:42.699Z,32
2022-12-28T19:08:44.306Z,27
2022-12-28T19:12:34.768Z,30
2022-12-28T19:17:31.389Z,30
2022-12-28T19:21:30.109Z,25
2022-12-28T19:23:58.352Z,27
2022-12-28T19:26:26.588Z,27
2022-12-28T19:28:54.925Z,25
2022-12-28T19:31:31.388Z,28
2022-12-28T19:33:59.598Z,23
2022-12-28T19:36:27.884Z,21
2022-12-28T20:03:38.849Z,29
2022-12-28T20:07:21.195Z,24
2022-12-28T20:09:49.512Z,20
2022-12-28T20:13:31.872Z,22
2022-12-28T20:16:00.259Z,22
2022-12-28T20:18:28.411Z,19
2022-12-28T20:21:18.916Z,20
2022-12-28T20:25:53.219Z,21
2022-12-28T20:55:48.779Z,27
2022-12-28T20:59:31.172Z,20
2022-12-28T21:01:59.523Z,22
2022-12-28T21:05:41.868Z,22
2022-12-28T21:09:24.245Z,23
2022-12-28T21:11:52.521Z,22
2022-12-28T21:15:26.768Z,20
2022-12-28T21:42:45.902Z,26
2022-12-28T21:46:36.478Z,20
2022-12-28T21:49:04.718Z,21
2022-12-28T21:51:32.988Z,23
2022-12-28T21:56:29.532Z,24
2022-12-28T21:58:57.837Z,26
2022-12-28T22:01:26.105Z,27
2022-12-28T22:06:22.651Z,23
2022-12-28T22:32:27.651Z,18
2022-12-28T22:35:03.999Z,22
2022-12-28T22:37:40.479Z,20
2022-12-28T22:41:31.077Z,19
2022-12-28T22:47:33.558Z,19
2022-12-28T22:50:01.835Z,17
2022-12-28T22:52:30.086Z,17
2022-12-28T22:54:58.352Z,17
2022-12-28T22:57:26.586Z,14
2022-12-28T22:59:54.853Z,18
2022-12-28T23:04:51.427Z,14
2022-12-28T23:24:45.804Z,14
2022-12-28T23:33:32.980Z,11
2022-12-28T23:59:29.713Z,13
